Time;durP1;ratioP1;P1;durP2;ratioP2;P2;SDS_P1;SDS_P2;PMS_P1;PMS_P2;Temp;Humidity;BMP_temperature;BMP_pressure;BME280_temperature;BME280_humidity;BME280_pressure;Samples;Min_cycle;Max_cycle;Signal;HPM_P1;HPM_P2
2022/08/07 00:00:07;;;;;;;3.40;2.03;;;16.60;99.90;;;;;;5093274;28;20266;-72
2022/08/07 00:02:33;;;;;;;2.17;2.08;;;16.60;99.90;;;;;;5092246;28;20185;-69
2022/08/07 00:04:59;;;;;;;3.25;2.03;;;16.60;99.90;;;;;;5086704;28;20185;-70
2022/08/07 00:07:24;;;;;;;1.85;1.75;;;16.60;99.90;;;;;;5059388;28;20208;-69
2022/08/07 00:09:50;;;;;;;2.97;2.78;;;16.60;99.90;;;;;;5063086;28;20201;-70
2022/08/07 00:12:15;;;;;;;2.67;2.47;;;16.50;99.90;;;;;;5043569;28;20184;-69
2022/08/07 00:14:41;;;;;;;3.72;2.05;;;16.40;99.90;;;;;;5082131;28;20185;-69
2022/08/07 00:17:07;;;;;;;1.98;1.88;;;16.40;99.90;;;;;;5054018;28;20181;-70
2022/08/07 00:19:33;;;;;;;2.25;2.05;;;16.40;99.90;;;;;;5073936;28;20213;-69
2022/08/07 00:21:59;;;;;;;6.18;2.60;;;16.40;99.90;;;;;;5076964;28;20189;-69
2022/08/07 00:24:25;;;;;;;2.92;2.53;;;16.40;99.90;;;;;;5092621;28;20273;-70
2022/08/07 00:26:51;;;;;;;3.08;2.65;;;16.30;99.90;;;;;;5075031;28;20207;-69
2022/08/07 00:29:18;;;;;;;2.40;2.22;;;16.30;99.90;;;;;;5075383;28;20196;-69
2022/08/07 00:31:44;;;;;;;3.97;2.42;;;16.50;99.90;;;;;;5083937;28;20199;-70
2022/08/07 00:34:09;;;;;;;5.47;3.72;;;16.40;99.90;;;;;;5058021;28;20181;-70
2022/08/07 00:36:36;;;;;;;3.28;3.08;;;16.40;99.90;;;;;;5086400;28;20192;-71
2022/08/07 00:39:02;;;;;;;3.95;2.53;;;16.30;99.90;;;;;;5057785;28;20196;-70
2022/08/07 00:41:32;;;;;;;6.25;2.92;;;16.30;99.90;;;;;;5074429;28;20188;-70
2022/08/07 00:43:58;;;;;;;3.40;2.65;;;16.20;99.90;;;;;;5093909;28;20184;-70
2022/08/07 00:46:23;;;;;;;2.67;2.47;;;16.20;99.90;;;;;;5058424;28;20234;-70
2022/08/07 00:48:49;;;;;;;3.33;2.20;;;16.10;99.90;;;;;;5084521;28;20230;-70
2022/08/07 00:51:15;;;;;;;3.08;2.55;;;16.10;99.90;;;;;;5075793;28;20196;-70
2022/08/07 00:53:40;;;;;;;3.92;2.58;;;16.10;99.90;;;;;;5060997;28;20666;-70
2022/08/07 00:56:06;;;;;;;2.97;2.75;;;16.10;99.90;;;;;;5070098;28;20189;-70
2022/08/07 00:58:32;;;;;;;4.03;3.28;;;16.00;99.90;;;;;;5051150;28;20594;-70
2022/08/07 01:00:58;;;;;;;4.18;2.50;;;16.00;99.90;;;;;;5075436;28;20265;-71
2022/08/07 01:03:24;;;;;;;3.42;2.50;;;16.00;99.90;;;;;;5093305;28;20514;-70
2022/08/07 01:05:51;;;;;;;2.42;2.22;;;16.00;99.90;;;;;;5068477;28;20193;-70
2022/08/07 01:08:17;;;;;;;6.40;2.78;;;16.00;99.90;;;;;;5075050;28;20211;-70
2022/08/07 01:10:43;;;;;;;2.90;2.47;;;16.00;99.90;;;;;;5059100;28;20185;-70
2022/08/07 01:13:09;;;;;;;3.30;2.95;;;15.90;99.90;;;;;;5066601;28;20189;-71
2022/08/07 01:15:36;;;;;;;9.70;2.70;;;15.90;99.90;;;;;;5057672;28;20185;-70
2022/08/07 01:18:02;;;;;;;2.85;2.50;;;15.90;99.90;;;;;;5087204;28;20635;-70
2022/08/07 01:20:34;;;;;;;3.30;3.03;;;15.90;99.90;;;;;;5056607;28;20205;-70
2022/08/07 01:23:00;;;;;;;4.18;2.75;;;15.90;99.90;;;;;;5080253;28;20176;-70
2022/08/07 01:25:27;;;;;;;3.53;2.65;;;15.80;99.90;;;;;;5055715;28;20197;-70
2022/08/07 01:27:54;;;;;;;2.03;1.90;;;15.80;99.90;;;;;;5036922;28;20212;-70
2022/08/07 01:30:21;;;;;;;3.22;2.92;;;15.80;99.90;;;;;;5075043;28;20242;-70
2022/08/07 01:32:47;;;;;;;3.08;2.75;;;15.80;99.90;;;;;;5087682;28;20188;-70
2022/08/07 01:35:13;;;;;;;3.80;3.22;;;15.70;99.90;;;;;;5074421;28;20280;-74
2022/08/07 01:37:39;;;;;;;3.50;3.20;;;15.80;99.90;;;;;;5065328;28;20331;-70
2022/08/07 01:40:05;;;;;;;2.70;2.50;;;15.70;99.90;;;;;;5032257;28;20779;-70
2022/08/07 01:42:32;;;;;;;4.40;3.03;;;15.70;99.90;;;;;;5075165;28;20195;-71
2022/08/07 01:44:58;;;;;;;2.47;2.28;;;15.60;99.90;;;;;;5062244;28;20205;-70
2022/08/07 01:47:24;;;;;;;3.70;3.30;;;15.60;99.90;;;;;;5057694;28;20208;-70
2022/08/07 01:49:50;;;;;;;3.47;3.17;;;15.60;99.90;;;;;;5054927;28;20189;-70
2022/08/07 01:52:17;;;;;;;4.15;2.85;;;15.60;99.90;;;;;;5054231;28;20641;-71
2022/08/07 01:54:44;;;;;;;3.22;2.70;;;15.50;99.90;;;;;;5092547;28;20177;-70
2022/08/07 01:57:24;;;;;;;4.72;2.78;;;15.50;99.90;;;;;;5049121;28;20307;-71
2022/08/07 01:59:56;;;;;;;4.57;3.22;;;15.50;99.90;;;;;;5074098;28;20219;-70
2022/08/07 02:02:37;;;;;;;4.45;2.83;;;15.50;99.90;;;;;;5073007;28;20177;-71
2022/08/07 02:05:06;;;;;;;7.60;3.90;;;15.50;99.90;;;;;;5089089;28;20195;-70
2022/08/07 02:07:39;;;;;;;2.75;2.55;;;15.50;99.90;;;;;;5070020;28;20239;-71
2022/08/07 02:10:07;;;;;;;5.78;3.03;;;15.40;99.90;;;;;;5074737;28;20270;-70
2022/08/07 02:12:37;;;;;;;3.67;3.05;;;15.40;99.90;;;;;;5087049;28;20185;-71
2022/08/07 02:15:04;;;;;;;3.10;2.75;;;15.50;99.90;;;;;;5081229;28;20176;-72
2022/08/07 02:17:31;;;;;;;2.97;2.67;;;15.50;99.90;;;;;;5073976;28;20549;-71
2022/08/07 02:19:59;;;;;;;6.38;3.78;;;15.50;99.90;;;;;;5086216;28;20200;-71
2022/08/07 02:22:27;;;;;;;3.50;3.20;;;15.50;99.90;;;;;;5092413;28;20191;-71
2022/08/07 02:24:56;;;;;;;4.22;3.15;;;15.50;99.90;;;;;;5073352;28;20176;-70
2022/08/07 02:27:24;;;;;;;4.45;3.38;;;15.40;99.90;;;;;;5091641;28;20210;-71
2022/08/07 02:29:51;;;;;;;8.25;3.38;;;15.40;99.90;;;;;;5088823;28;20176;-71
2022/08/07 02:32:18;;;;;;;4.40;3.90;;;15.40;99.90;;;;;;5069032;28;20181;-70
2022/08/07 02:34:46;;;;;;;8.23;3.20;;;15.30;99.90;;;;;;5086073;28;20177;-70
2022/08/07 02:37:13;;;;;;;5.13;4.03;;;15.30;99.90;;;;;;5082147;28;20246;-70
2022/08/07 02:39:41;;;;;;;3.83;3.47;;;15.30;99.90;;;;;;5063966;28;20755;-71
2022/08/07 02:42:07;;;;;;;7.50;4.45;;;15.30;99.90;;;;;;5092280;28;20172;-70
2022/08/07 02:44:35;;;;;;;5.88;3.67;;;15.30;99.90;;;;;;5057028;28;20283;-71
2022/08/07 02:47:02;;;;;;;4.07;3.47;;;15.30;99.90;;;;;;5082149;28;20255;-70
2022/08/07 02:49:28;;;;;;;4.40;3.03;;;15.20;99.90;;;;;;5076690;28;20185;-71
2022/08/07 02:51:57;;;;;;;5.68;3.30;;;15.20;99.90;;;;;;5058787;28;20552;-71
2022/08/07 02:54:26;;;;;;;5.20;3.60;;;15.20;99.90;;;;;;5087285;28;20212;-71
2022/08/07 02:56:54;;;;;;;4.47;2.65;;;15.20;99.90;;;;;;5085811;28;20184;-70
2022/08/07 02:59:23;;;;;;;4.30;3.90;;;15.20;99.90;;;;;;5092745;28;20208;-71
2022/08/07 03:01:49;;;;;;;13.82;4.45;;;15.10;99.90;;;;;;5095910;28;20181;-71
2022/08/07 03:04:16;;;;;;;5.90;3.47;;;15.10;99.90;;;;;;5068174;28;20185;-70
2022/08/07 03:06:43;;;;;;;9.73;3.20;;;15.10;99.90;;;;;;5060982;28;20329;-70
2022/08/07 03:09:09;;;;;;;4.35;3.33;;;15.00;99.90;;;;;;5085254;28;20184;-70
2022/08/07 03:11:36;;;;;;;4.55;3.58;;;15.00;99.90;;;;;;5077468;28;20188;-71
2022/08/07 03:14:04;;;;;;;7.22;3.63;;;14.90;99.90;;;;;;5095812;28;20176;-70
2022/08/07 03:16:31;;;;;;;5.72;3.38;;;14.90;99.90;;;;;;5077991;28;20546;-71
2022/08/07 03:18:58;;;;;;;4.60;3.33;;;14.80;99.90;;;;;;5076224;28;20193;-71
2022/08/07 03:21:25;;;;;;;4.60;3.70;;;14.90;99.90;;;;;;5066150;28;20662;-70
2022/08/07 03:23:55;;;;;;;3.88;3.55;;;14.90;99.90;;;;;;5095990;28;20260;-71
2022/08/07 03:26:24;;;;;;;4.45;4.00;;;14.90;99.90;;;;;;5081590;28;20185;-70
2022/08/07 03:28:51;;;;;;;7.00;3.50;;;15.00;99.90;;;;;;5086455;28;20189;-70
2022/08/07 03:31:18;;;;;;;3.95;3.30;;;14.90;99.90;;;;;;5058155;28;20266;-71
2022/08/07 03:33:46;;;;;;;8.10;3.28;;;14.90;99.90;;;;;;5062943;28;20216;-71
2022/08/07 03:36:16;;;;;;;6.57;4.07;;;14.90;99.90;;;;;;5092906;28;20602;-70
2022/08/07 03:38:42;;;;;;;4.15;3.72;;;14.90;99.90;;;;;;5077064;28;20189;-71
2022/08/07 03:41:09;;;;;;;4.55;3.70;;;14.90;99.90;;;;;;5091007;28;20219;-71
2022/08/07 03:43:36;;;;;;;3.95;3.55;;;14.90;99.90;;;;;;5077293;28;20189;-71
2022/08/07 03:46:04;;;;;;;7.30;3.90;;;14.90;99.90;;;;;;5076608;28;20188;-71
2022/08/07 03:48:32;;;;;;;4.85;3.15;;;14.90;99.90;;;;;;5094591;28;20192;-71
2022/08/07 03:50:58;;;;;;;5.82;4.00;;;14.90;99.90;;;;;;5077624;28;20184;-71
2022/08/07 03:53:25;;;;;;;3.90;3.40;;;14.80;99.90;;;;;;5072971;28;20230;-71
2022/08/07 03:55:52;;;;;;;5.35;4.45;;;14.80;99.90;;;;;;5073615;28;20177;-72
2022/08/07 03:58:20;;;;;;;3.65;2.65;;;14.80;99.90;;;;;;5057902;28;20620;-70
2022/08/07 04:00:48;;;;;;;4.65;3.63;;;14.80;99.90;;;;;;5092589;28;20204;-70
2022/08/07 04:03:15;;;;;;;6.22;4.32;;;14.70;99.90;;;;;;5075356;28;20227;-70
2022/08/07 04:05:41;;;;;;;5.38;4.15;;;14.70;99.90;;;;;;5057716;28;20272;-70
2022/08/07 04:08:10;;;;;;;5.88;4.40;;;14.70;99.90;;;;;;5095059;28;20731;-70
2022/08/07 04:10:36;;;;;;;9.18;4.55;;;14.60;99.90;;;;;;5071476;28;20245;-71
2022/08/07 04:13:02;;;;;;;7.50;4.13;;;14.60;99.90;;;;;;5055773;28;20275;-70
2022/08/07 04:15:29;;;;;;;5.85;4.30;;;14.60;99.90;;;;;;5076259;28;20205;-70
2022/08/07 04:17:55;;;;;;;4.90;4.25;;;14.50;99.90;;;;;;5074306;28;20590;-70
2022/08/07 04:20:21;;;;;;;6.80;4.85;;;14.60;99.90;;;;;;5076255;28;20205;-71
2022/08/07 04:22:48;;;;;;;7.57;4.97;;;14.60;99.90;;;;;;5092132;28;20292;-71
2022/08/07 04:25:15;;;;;;;7.13;4.30;;;14.60;99.90;;;;;;5072183;28;20195;-71
2022/08/07 04:27:40;;;;;;;7.75;5.25;;;14.60;99.90;;;;;;5058323;28;20211;-71
2022/08/07 04:30:07;;;;;;;7.38;4.40;;;14.60;99.90;;;;;;5059687;28;20208;-71
2022/08/07 04:32:33;;;;;;;8.27;5.25;;;14.60;99.90;;;;;;5058442;28;20181;-71
2022/08/07 04:35:04;;;;;;;9.30;5.25;;;14.50;99.90;;;;;;5082748;28;20212;-71
2022/08/07 04:37:31;;;;;;;6.20;4.57;;;14.50;99.90;;;;;;5090107;28;20540;-71
2022/08/07 04:39:57;;;;;;;6.07;4.35;;;14.50;99.90;;;;;;5065175;28;20200;-71
2022/08/07 04:42:26;;;;;;;7.18;5.28;;;14.60;99.90;;;;;;5094863;28;20685;-72
2022/08/07 04:44:54;;;;;;;7.03;5.35;;;14.60;99.90;;;;;;5093380;28;20214;-72
2022/08/07 04:47:58;;;;;;;9.80;4.82;;;14.70;99.90;;;;;;5082393;28;20204;-72
2022/08/07 04:50:26;;;;;;;5.18;4.57;;;14.70;99.90;;;;;;5035372;28;20196;-71
2022/08/07 04:53:07;;;;;;;8.95;6.15;;;14.80;99.90;;;;;;5075744;28;20237;-71
2022/08/07 04:55:51;;;;;;;8.88;7.15;;;14.80;99.90;;;;;;5088028;28;20200;-76
2022/08/07 04:58:19;;;;;;;20.98;8.05;;;14.80;99.90;;;;;;5093771;28;20642;-71
2022/08/07 05:01:04;;;;;;;11.52;6.95;;;14.80;99.90;;;;;;5093040;28;20197;-71
2022/08/07 05:03:46;;;;;;;10.82;5.80;;;14.90;99.90;;;;;;5075745;28;20701;-71
2022/08/07 05:06:18;;;;;;;10.35;6.53;;;14.90;99.90;;;;;;5069954;28;20238;-71
2022/08/07 05:08:56;;;;;;;12.00;6.07;;;14.90;99.90;;;;;;5093276;28;20266;-72
2022/08/07 05:11:50;;;;;;;5.88;5.20;;;15.00;99.90;;;;;;5092811;28;20195;-72
2022/08/07 05:14:24;;;;;;;8.35;6.00;;;15.00;99.90;;;;;;5076558;28;20191;-72
2022/08/07 05:16:55;;;;;;;9.25;5.38;;;14.90;99.90;;;;;;5075543;28;20289;-71
2022/08/07 05:19:23;;;;;;;7.45;5.07;;;14.90;99.90;;;;;;5088827;28;20350;-72
2022/08/07 05:21:55;;;;;;;8.60;5.18;;;15.00;99.90;;;;;;5081809;28;20538;-72
2022/08/07 05:24:22;;;;;;;6.45;5.20;;;15.20;99.90;;;;;;5079812;28;20629;-71
2022/08/07 05:26:52;;;;;;;10.70;5.82;;;15.10;99.90;;;;;;5080797;28;20238;-72
2022/08/07 05:29:20;;;;;;;8.35;5.32;;;15.20;99.90;;;;;;5078534;28;20189;-72
2022/08/07 05:31:48;;;;;;;6.30;5.25;;;15.10;99.90;;;;;;5075342;28;20259;-72
2022/08/07 05:34:16;;;;;;;5.20;4.15;;;15.20;99.90;;;;;;5075051;28;20185;-72
2022/08/07 05:36:49;;;;;;;7.65;4.95;;;15.30;99.90;;;;;;5070175;28;20196;-71
2022/08/07 05:39:18;;;;;;;5.32;4.22;;;15.40;99.90;;;;;;5091071;28;20184;-72
2022/08/07 05:41:46;;;;;;;6.25;5.03;;;15.50;99.90;;;;;;5082347;28;20216;-72
2022/08/07 05:44:12;;;;;;;8.40;5.72;;;15.60;99.90;;;;;;5083869;28;20201;-72
2022/08/07 05:46:40;;;;;;;4.93;4.43;;;15.60;99.90;;;;;;5065809;28;20241;-73
2022/08/07 05:49:07;;;;;;;6.00;4.53;;;15.80;99.90;;;;;;5092600;28;20633;-71
2022/08/07 05:51:33;;;;;;;6.35;4.80;;;15.80;99.90;;;;;;5085384;28;20181;-75
2022/08/07 05:53:59;;;;;;;7.65;4.60;;;15.60;99.90;;;;;;5048919;28;20246;-72
2022/08/07 05:56:27;;;;;;;5.75;4.97;;;15.60;99.90;;;;;;5074752;28;20203;-72
2022/08/07 05:58:52;;;;;;;6.93;4.40;;;15.80;99.90;;;;;;5090660;28;20526;-71
2022/08/07 06:01:19;;;;;;;6.95;4.80;;;16.10;99.90;;;;;;5052714;28;20213;-71
2022/08/07 06:03:49;;;;;;;6.05;4.82;;;16.00;99.90;;;;;;5048178;28;20292;-71
2022/08/07 06:06:16;;;;;;;9.55;5.65;;;15.90;99.90;;;;;;5092651;28;20184;-72
2022/08/07 06:08:43;;;;;;;6.43;5.05;;;16.00;99.90;;;;;;5038414;28;20246;-71
2022/08/07 06:11:10;;;;;;;8.05;5.72;;;16.10;99.90;;;;;;5054263;28;20185;-71
2022/08/07 06:13:36;;;;;;;6.53;4.65;;;16.00;99.90;;;;;;5068386;28;20676;-71
2022/08/07 06:16:05;;;;;;;6.90;4.20;;;15.80;99.90;;;;;;5073168;28;20682;-71
2022/08/07 06:18:34;;;;;;;8.23;5.72;;;15.80;99.90;;;;;;5092631;28;20256;-71
2022/08/07 06:21:01;;;;;;;9.07;5.57;;;15.90;99.90;;;;;;5092021;28;20196;-71
2022/08/07 06:23:28;;;;;;;5.35;4.85;;;16.10;99.90;;;;;;5073244;28;20185;-71
2022/08/07 06:25:55;;;;;;;8.52;5.32;;;16.20;99.90;;;;;;5039772;28;20178;-71
2022/08/07 06:28:21;;;;;;;6.40;4.45;;;16.20;99.90;;;;;;5082682;28;20184;-71
2022/08/07 06:30:47;;;;;;;5.95;4.22;;;16.30;99.90;;;;;;5038350;28;20660;-71
2022/08/07 06:33:13;;;;;;;7.15;4.28;;;16.50;99.90;;;;;;5091716;28;20536;-71
2022/08/07 06:35:38;;;;;;;3.08;2.78;;;16.60;99.90;;;;;;5090956;28;20189;-71
2022/08/07 06:38:04;;;;;;;4.50;3.13;;;16.70;99.90;;;;;;5074044;28;20181;-71
2022/08/07 06:40:38;;;;;;;6.32;2.75;;;16.50;99.90;;;;;;5087191;28;20564;-71
2022/08/07 06:43:07;;;;;;;3.45;2.80;;;16.40;99.90;;;;;;5087386;28;20233;-71
2022/08/07 06:45:33;;;;;;;2.90;2.38;;;16.50;99.90;;;;;;5074333;28;20259;-71
2022/08/07 06:48:00;;;;;;;3.88;3.33;;;16.60;99.90;;;;;;5048022;28;20276;-73
2022/08/07 06:50:26;;;;;;;3.97;3.17;;;16.60;99.90;;;;;;5040171;28;20177;-69
2022/08/07 06:52:55;;;;;;;4.20;2.80;;;16.60;99.90;;;;;;5084291;28;20180;-70
2022/08/07 06:55:31;;;;;;;4.80;2.80;;;16.70;99.90;;;;;;5064487;28;20168;-69
2022/08/07 06:58:00;;;;;;;3.35;2.72;;;16.90;99.90;;;;;;5047793;28;20184;-69
2022/08/07 07:00:29;;;;;;;4.65;2.80;;;17.10;99.90;;;;;;5086482;28;20694;-70
2022/08/07 07:02:56;;;;;;;5.65;2.63;;;17.20;99.90;;;;;;5084357;28;20184;-70
2022/08/07 07:05:22;;;;;;;2.28;2.08;;;17.30;99.90;;;;;;5056540;28;20272;-70
2022/08/07 07:07:47;;;;;;;2.35;2.08;;;17.30;99.90;;;;;;5087935;28;20209;-69
2022/08/07 07:10:14;;;;;;;5.53;3.03;;;17.30;99.90;;;;;;5058238;28;20197;-69
2022/08/07 07:12:50;;;;;;;4.25;2.28;;;17.30;99.90;;;;;;5090285;28;20187;-70
2022/08/07 07:15:29;;;;;;;3.60;2.58;;;17.40;99.90;;;;;;5088921;28;20671;-70
2022/08/07 07:18:08;;;;;;;3.10;2.08;;;17.50;99.90;;;;;;5071912;28;20184;-70
2022/08/07 07:20:56;;;;;;;3.75;2.55;;;17.50;99.90;;;;;;5086701;28;20196;-71
2022/08/07 07:23:23;;;;;;;3.35;2.42;;;17.50;99.90;;;;;;5088342;28;20177;-70
2022/08/07 07:25:53;;;;;;;3.00;2.58;;;17.70;99.90;;;;;;5089419;28;20239;-69
2022/08/07 07:28:31;;;;;;;3.58;2.00;;;17.90;99.90;;;;;;5088205;28;20556;-70
2022/08/07 07:31:05;;;;;;;3.28;2.75;;;18.20;99.90;;;;;;5089993;28;20191;-68
2022/08/07 07:33:34;;;;;;;3.67;2.72;;;18.10;99.90;;;;;;5089212;28;20177;-60
2022/08/07 07:36:01;;;;;;;4.35;3.00;;;18.10;99.90;;;;;;5091422;28;20681;-60
2022/08/07 07:38:28;;;;;;;3.08;2.10;;;18.20;99.90;;;;;;5092782;28;20196;-61
2022/08/07 07:41:00;;;;;;;5.47;2.17;;;18.80;99.90;;;;;;5089960;28;20688;-62
2022/08/07 07:43:28;;;;;;;3.40;2.55;;;20.70;99.90;;;;;;5094747;28;20181;-60
2022/08/07 07:45:53;;;;;;;4.72;2.35;;;22.70;99.90;;;;;;5090199;28;20238;-61
2022/08/07 07:48:22;;;;;;;2.35;1.60;;;23.80;99.90;;;;;;5064286;28;20596;-62
2022/08/07 07:50:51;;;;;;;5.18;2.40;;;25.40;99.90;;;;;;5091285;28;20276;-62
2022/08/07 07:53:19;;;;;;;2.35;1.67;;;25.60;99.90;;;;;;5089694;28;20188;-62
2022/08/07 07:55:45;;;;;;;2.10;1.88;;;25.90;99.90;;;;;;5093896;28;20213;-63
2022/08/07 07:58:12;;;;;;;2.60;1.75;;;25.80;99.90;;;;;;5087500;28;20185;-62
2022/08/07 08:00:38;;;;;;;1.67;1.58;;;26.00;99.90;;;;;;5066625;28;20211;-62
2022/08/07 08:03:08;;;;;;;1.42;1.33;;;26.40;99.90;;;;;;5077069;28;20192;-62
2022/08/07 08:05:37;;;;;;;1.98;1.77;;;26.80;99.90;;;;;;5091222;28;20649;-62
2022/08/07 08:08:03;;;;;;;2.70;2.10;;;27.10;99.90;;;;;;5091220;28;20650;-62
2022/08/07 08:10:30;;;;;;;1.75;1.63;;;28.00;99.90;;;;;;5085138;28;20206;-64
2022/08/07 08:12:57;;;;;;;4.38;1.20;;;29.20;99.90;;;;;;5094661;28;20246;-63
2022/08/07 08:15:23;;;;;;;1.63;1.45;;;30.10;99.90;;;;;;5070148;28;20208;-62
2022/08/07 08:17:49;;;;;;;4.68;1.85;;;29.60;99.90;;;;;;5092966;28;20493;-63
2022/08/07 08:20:17;;;;;;;1.63;1.30;;;28.50;99.90;;;;;;5069584;28;20192;-63
2022/08/07 08:28:21;;;;;;;3.58;2.30;;;30.70;99.90;;;;;;5091569;28;20309;-64
2022/08/07 08:30:52;;;;;;;1.15;1.15;;;31.00;99.90;;;;;;5088260;28;20179;-64
2022/08/07 08:33:19;;;;;;;2.63;1.83;;;31.90;99.90;;;;;;5092143;28;20267;-64
2022/08/07 08:35:50;;;;;;;1.60;1.40;;;32.30;99.90;;;;;;5076443;28;20184;-64
2022/08/07 08:38:18;;;;;;;1.67;1.25;;;32.40;99.90;;;;;;5061627;28;20185;-64
2022/08/07 08:40:52;;;;;;;2.88;1.52;;;32.80;99.90;;;;;;5068977;28;20207;-64
2022/08/07 08:43:33;;;;;;;3.03;1.75;;;33.00;99.90;;;;;;5093566;28;20179;-64
2022/08/07 08:46:10;;;;;;;2.05;1.75;;;33.20;99.90;;;;;;5081627;28;20215;-64
2022/08/07 08:48:56;;;;;;;3.92;1.75;;;32.50;99.90;;;;;;5061937;28;20179;-64
2022/08/07 08:51:31;;;;;;;1.83;1.30;;;32.00;99.90;;;;;;5069234;28;20233;-65
2022/08/07 08:54:24;;;;;;;1.58;1.45;;;32.00;99.90;;;;;;5082691;28;20244;-63
2022/08/07 08:56:51;;;;;;;1.80;1.30;;;31.90;99.90;;;;;;5093645;28;20176;-64
2022/08/07 08:59:58;;;;;;;1.55;1.45;;;32.40;99.90;;;;;;5082904;28;20187;-63
2022/08/07 09:02:38;;;;;;;2.00;1.52;;;33.10;99.90;;;;;;4986049;28;20246;-64
2022/08/07 09:05:27;;;;;;;5.60;2.45;;;33.00;99.90;;;;;;5079529;28;20648;-63
2022/08/07 09:08:04;;;;;;;3.47;1.45;;;32.70;99.90;;;;;;5088961;28;20270;-64
2022/08/07 09:10:59;;;;;;;1.85;1.65;;;32.50;99.90;;;;;;5087715;28;20180;-64
2022/08/07 09:13:33;;;;;;;2.33;2.13;;;32.50;99.90;;;;;;5081039;28;20345;-66
2022/08/07 09:16:09;;;;;;;2.75;1.52;;;32.20;99.90;;;;;;5082759;28;20176;-62
2022/08/07 09:18:54;;;;;;;1.98;1.52;;;32.60;99.90;;;;;;5065964;28;20171;-65
2022/08/07 09:21:26;;;;;;;1.63;1.52;;;32.80;99.90;;;;;;5072846;28;20207;-64
2022/08/07 09:24:06;;;;;;;4.47;1.70;;;31.80;99.90;;;;;;5092342;28;20668;-64
2022/08/07 09:26:38;;;;;;;2.92;1.38;;;30.70;99.90;;;;;;5091698;28;20176;-64
2022/08/07 09:29:19;;;;;;;2.50;1.60;;;29.50;99.90;;;;;;5092689;28;20213;-64
2022/08/07 09:31:58;;;;;;;1.70;1.60;;;28.30;99.90;;;;;;5075246;28;20609;-63
2022/08/07 09:34:30;;;;;;;1.45;1.35;;;27.50;99.90;;;;;;5066215;28;20183;-67
2022/08/07 09:37:01;;;;;;;3.10;1.83;;;26.80;99.90;;;;;;5088918;28;20192;-64
2022/08/07 09:39:35;;;;;;;1.95;1.63;;;26.40;99.90;;;;;;5087901;28;20187;-64
2022/08/07 09:42:04;;;;;;;2.53;1.50;;;25.80;99.90;;;;;;5068303;28;20207;-63
2022/08/07 09:44:55;;;;;;;1.55;1.40;;;25.40;99.90;;;;;;5078094;28;20177;-64
2022/08/07 09:47:55;;;;;;;2.13;2.00;;;25.00;99.90;;;;;;5080756;28;20267;-65
2022/08/07 09:50:43;;;;;;;2.28;2.08;;;24.80;99.90;;;;;;5080216;28;20280;-64
2022/08/07 09:53:10;;;;;;;2.45;1.40;;;24.60;99.90;;;;;;5092132;28;20260;-64
2022/08/07 09:56:13;;;;;;;1.75;1.65;;;24.80;99.90;;;;;;5078046;28;20744;-65
2022/08/07 09:59:01;;;;;;;1.60;1.38;;;24.60;99.90;;;;;;5073936;28;20179;-65
2022/08/07 10:01:44;;;;;;;2.03;1.90;;;24.10;99.90;;;;;;5073032;28;20196;-64
2022/08/07 10:04:23;;;;;;;1.85;1.67;;;24.10;99.90;;;;;;5066015;28;20275;-64
2022/08/07 10:06:56;;;;;;;2.42;2.08;;;24.00;99.90;;;;;;5069458;28;20192;-64
2022/08/07 10:09:55;;;;;;;2.20;1.92;;;23.80;99.90;;;;;;5089291;28;20254;-68
2022/08/07 10:12:38;;;;;;;3.50;1.70;;;23.70;99.90;;;;;;5090762;28;20215;-66
2022/08/07 10:15:22;;;;;;;1.95;1.70;;;23.70;99.90;;;;;;5080698;28;20172;-66
2022/08/07 10:18:15;;;;;;;1.75;1.65;;;23.90;99.90;;;;;;5089177;28;20185;-66
2022/08/07 10:21:16;;;;;;;3.65;1.92;;;24.20;99.90;;;;;;5084732;28;20251;-66
2022/08/07 10:23:47;;;;;;;1.75;1.65;;;24.20;99.90;;;;;;5086524;28;20644;-66
2022/08/07 10:26:46;;;;;;;1.67;1.58;;;23.70;99.90;;;;;;5089924;28;20570;-66
2022/08/07 10:29:24;;;;;;;2.45;1.85;;;23.70;99.90;;;;;;5089206;28;20700;-66
2022/08/07 10:32:23;;;;;;;2.75;1.73;;;23.50;99.90;;;;;;5080588;28;20204;-66
2022/08/07 10:35:13;;;;;;;4.10;1.65;;;23.30;99.90;;;;;;5088867;28;20284;-67
2022/08/07 10:37:58;;;;;;;1.50;1.38;;;23.50;99.90;;;;;;5066321;28;20267;-66
2022/08/07 10:40:32;;;;;;;1.92;1.63;;;23.70;99.90;;;;;;5079683;28;20517;-66
2022/08/07 10:43:28;;;;;;;1.88;1.58;;;24.00;99.90;;;;;;5083219;28;20192;-68
2022/08/07 10:46:00;;;;;;;2.55;2.08;;;24.20;99.90;;;;;;5081314;28;20634;-66
2022/08/07 10:48:49;;;;;;;2.30;2.08;;;24.10;99.90;;;;;;5073966;28;20173;-66
2022/08/07 10:51:30;;;;;;;3.05;1.67;;;24.10;99.90;;;;;;5087286;28;20180;-67
2022/08/07 10:54:27;;;;;;;1.58;1.20;;;24.10;99.90;;;;;;5091293;28;20184;-66
2022/08/07 10:56:53;;;;;;;1.48;1.38;;;24.10;99.90;;;;;;5076941;28;20176;-66
2022/08/07 10:59:50;;;;;;;1.50;1.40;;;24.20;99.90;;;;;;5092294;28;20263;-66
2022/08/07 11:02:45;;;;;;;1.60;1.50;;;24.30;99.90;;;;;;5058218;28;20251;-66
2022/08/07 11:05:10;;;;;;;2.13;1.70;;;24.40;99.90;;;;;;5088490;28;20165;-66
2022/08/07 11:07:48;;;;;;;2.58;1.65;;;24.30;99.90;;;;;;5077688;28;20567;-66
2022/08/07 11:10:58;;;;;;;2.00;1.50;;;24.20;99.90;;;;;;5089080;28;20274;-67
2022/08/07 11:13:46;;;;;;;6.07;1.42;;;23.80;99.90;;;;;;5092233;28;20173;-66
2022/08/07 11:16:37;;;;;;;1.52;1.42;;;24.00;99.90;;;;;;5096410;28;20181;-66
2022/08/07 11:19:13;;;;;;;5.32;1.98;;;24.10;99.90;;;;;;5076997;28;20182;-66
2022/08/07 11:21:49;;;;;;;1.80;1.33;;;24.10;99.90;;;;;;5073842;28;20192;-66
2022/08/07 11:24:27;;;;;;;2.45;1.80;;;24.20;99.90;;;;;;5079815;28;20241;-66
2022/08/07 11:27:12;;;;;;;1.70;1.60;;;24.10;99.90;;;;;;5069377;28;20183;-66
2022/08/07 11:29:46;;;;;;;2.08;1.65;;;24.10;99.90;;;;;;5068186;28;20189;-66
2022/08/07 11:32:57;;;;;;;1.85;1.73;;;24.20;99.90;;;;;;5095120;28;20453;-65
2022/08/07 11:35:35;;;;;;;4.22;2.22;;;24.30;99.90;;;;;;5012652;28;20201;-65
2022/08/07 11:38:14;;;;;;;2.28;1.52;;;24.40;99.90;;;;;;5083436;28;20266;-65
2022/08/07 11:40:40;;;;;;;1.77;1.38;;;24.30;99.90;;;;;;5078798;28;20193;-66
2022/08/07 11:43:15;;;;;;;2.72;1.55;;;23.90;99.90;;;;;;5088446;28;20180;-65
2022/08/07 11:46:18;;;;;;;1.55;1.45;;;23.80;99.90;;;;;;5073941;28;20222;-65
2022/08/07 11:49:08;;;;;;;1.85;1.75;;;23.80;99.90;;;;;;5054382;28;20549;-65
2022/08/07 11:51:36;;;;;;;2.15;1.70;;;23.80;99.90;;;;;;5086178;28;20196;-67
2022/08/07 11:54:02;;;;;;;2.35;1.20;;;23.80;99.90;;;;;;5083144;28;20656;-65
2022/08/07 11:57:01;;;;;;;2.50;1.80;;;24.00;99.90;;;;;;5074057;28;20181;-65
2022/08/07 11:59:46;;;;;;;4.55;1.83;;;24.10;99.90;;;;;;5047992;28;20607;-66
2022/08/07 12:02:41;;;;;;;2.25;1.20;;;23.90;99.90;;;;;;5092100;28;20184;-65
2022/08/07 12:05:37;;;;;;;1.88;1.63;;;23.90;99.90;;;;;;5094798;28;20187;-66
2022/08/07 12:08:29;;;;;;;1.48;1.38;;;24.00;99.90;;;;;;5064928;28;20184;-65
2022/08/07 12:11:15;;;;;;;2.75;2.20;;;24.10;99.90;;;;;;5092417;28;20172;-65
2022/08/07 12:14:02;;;;;;;1.42;1.33;;;24.20;99.90;;;;;;5092650;28;20186;-65
2022/08/07 12:16:33;;;;;;;1.70;1.60;;;24.30;99.90;;;;;;5067174;28;20189;-65
2022/08/07 12:19:29;;;;;;;2.08;1.33;;;24.30;99.90;;;;;;5089152;28;20216;-68
2022/08/07 12:22:20;;;;;;;1.00;1.00;;;24.30;99.90;;;;;;5075729;28;20197;-65
2022/08/07 12:27:49;;;;;;;1.52;1.40;;;24.30;99.90;;;;;;5093454;28;20191;-66
2022/08/07 12:30:18;;;;;;;5.70;1.60;;;24.30;99.90;;;;;;5076520;28;20211;-65
2022/08/07 12:32:59;;;;;;;2.20;1.80;;;24.20;99.90;;;;;;5094734;28;20176;-66
2022/08/07 12:35:27;;;;;;;1.48;1.38;;;24.00;99.90;;;;;;5083539;28;20188;-65
2022/08/07 12:37:54;;;;;;;1.63;1.20;;;24.00;99.90;;;;;;5072883;28;20178;-65
2022/08/07 12:40:31;;;;;;;1.70;1.20;;;24.10;99.90;;;;;;5093675;28;20201;-65
2022/08/07 12:43:00;;;;;;;0.80;0.80;;;24.30;99.90;;;;;;5072713;28;20181;-65
2022/08/07 12:45:34;;;;;;;2.83;1.70;;;24.30;99.90;;;;;;5071259;28;20180;-65
2022/08/07 12:48:18;;;;;;;2.45;2.17;;;24.30;99.90;;;;;;5094511;28;20187;-65
2022/08/07 12:51:11;;;;;;;2.42;1.75;;;24.00;99.90;;;;;;5069552;28;20215;-66
2022/08/07 12:53:44;;;;;;;1.60;1.50;;;23.90;99.90;;;;;;5093280;28;20234;-65
2022/08/07 12:56:26;;;;;;;1.88;1.60;;;23.80;99.90;;;;;;5084588;28;20626;-65
2022/08/07 12:58:52;;;;;;;2.03;1.27;;;23.80;99.90;;;;;;5091876;28;20177;-65
2022/08/07 13:01:23;;;;;;;2.08;1.60;;;23.90;99.90;;;;;;5072738;28;20279;-65
2022/08/07 13:03:50;;;;;;;1.45;1.35;;;24.00;99.90;;;;;;5090633;28;20205;-65
2022/08/07 13:06:35;;;;;;;2.30;1.50;;;24.10;99.90;;;;;;5091378;28;20242;-65
2022/08/07 13:09:06;;;;;;;1.30;1.20;;;24.10;99.90;;;;;;5091014;28;20222;-65
2022/08/07 13:11:52;;;;;;;1.50;1.40;;;24.20;99.90;;;;;;5076013;28;20214;-66
2022/08/07 13:14:26;;;;;;;1.48;1.38;;;24.40;99.90;;;;;;5082959;28;20173;-65
2022/08/07 13:16:59;;;;;;;1.00;1.00;;;24.50;99.90;;;;;;5092789;28;20178;-65
2022/08/07 13:19:25;;;;;;;1.38;1.20;;;24.30;99.90;;;;;;5092888;28;20176;-65
2022/08/07 13:22:15;;;;;;;0.95;0.95;;;24.30;99.90;;;;;;5091673;28;20539;-65